Latest Weather Observations for Carters Bore

IDQ60801

Issued at 9:52 pm EST Monday 18 June 2018 (issued every 10 minutes, with the page automatically refreshed every 10 minutes)

About weather observations | Map of weather stations | Latest weather observations for QLD | Other Formats
Station Details ID: 037053 Name: CARTERS BORE Lat: -20.94 Lon: 139.30 Height: 396.0 m
Data from the previous 72 hours. | See also: Recent months at Carters Bore
Date/Time
EST
Temp
°C
App
Temp
°C
Dew
Point
°C
Rel
Hum
%
Delta-T
°C
Wind Press
QNH
hPa
Press
MSL
hPa
Rain since
9am
mm
Dir  Spd
km/h
Gust
km/h
Spd
kts
Gust
kts
18/09:30pm 12.3 8.1 -3.9 32 6.2 SSE 9 15 5 8 - - 0.0
18/09:00pm 13.1 8.1 -4.1 30 6.7 SSE 13 20 7 11 - - 0.0
18/08:30pm 13.0 8.4 -3.7 31 6.5 SSE 11 17 6 9 - - 0.0
18/08:00pm 13.4 8.8 -3.8 30 6.7 SSE 11 17 6 9 - - 0.0
18/07:30pm 14.1 9.5 -4.1 28 7.1 SSE 11 15 6 8 - - 0.0
18/07:00pm 14.5 9.5 -4.2 27 7.3 SSE 13 20 7 11 - - 0.0
18/06:30pm 15.1 10.5 -4.2 26 7.6 SSE 11 20 6 11 - - 0.0
18/06:00pm 16.2 10.7 -5.5 22 8.4 SE 15 22 8 12 - - 0.0
18/05:30pm 17.0 11.0 -6.8 19 9.1 SE 17 26 9 14 - - 0.0
18/05:00pm 17.7 11.3 -6.9 18 9.4 SE 19 28 10 15 - - 0.0
18/04:30pm 17.9 11.4 -6.0 19 9.4 SSE 20 28 11 15 - - 0.0
18/04:00pm 18.3 12.3 -6.4 18 9.6 SE 17 28 9 15 - - 0.0
18/03:30pm 18.9 12.9 -6.7 17 10.0 SE 17 22 9 12 - - 0.0
18/03:00pm 18.5 12.4 -7.8 16 10.0 ESE 17 33 9 18 - - 0.0
18/02:30pm 18.2 11.6 -6.5 18 9.6 SSE 20 32 11 17 - - 0.0
18/02:00pm 17.7 11.1 -6.9 18 9.4 SE 20 35 11 19 - - 0.0
18/01:30pm 17.2 10.6 -7.3 18 9.3 SE 20 30 11 16 - - 0.0
18/01:00pm 16.3 10.4 -6.0 21 8.6 SE 17 24 9 13 - - 0.0
18/12:30pm 15.5 9.3 -5.0 24 8.0 ESE 19 30 10 16 - - 0.0
18/12:00pm 15.2 8.4 -5.2 24 7.9 SE 22 35 12 19 - - 0.0
18/11:30am 14.2 7.9 -5.5 25 7.5 ESE 19 33 10 18 - - 0.0
18/11:00am 13.6 6.5 -4.1 29 6.9 SE 24 37 13 20 - - 0.0
18/10:30am 13.1 6.8 -3.6 31 6.5 ESE 20 32 11 17 - - 0.0
18/10:00am 12.2 5.1 -4.0 32 6.2 SE 24 37 13 20 - - 0.0
18/09:30am 11.7 5.1 -3.2 35 5.8 SE 22 39 12 21 - - 0.0
18/09:00am 11.0 4.8 -2.8 38 5.4 SE 20 37 11 20 - - 0.0
18/08:30am 10.2 4.0 -2.8 40 5.0 SE 20 32 11 17 - - 0.0
18/08:00am 9.3 4.3 -1.1 48 4.1 SE 15 26 8 14 - - 0.0
18/07:30am 8.7 4.5 -1.1 50 3.9 SE 11 20 6 11 - - 0.0
18/07:00am 9.1 4.5 -1.3 48 4.1 SE 13 22 7 12 - - 0.0
18/06:30am 9.5 4.9 -1.2 47 4.3 SE 13 19 7 10 - - 0.0
18/06:00am 9.8 5.5 -1.3 46 4.4 SE 11 20 6 11 - - 0.0
18/05:30am 9.9 5.3 -1.2 46 4.4 SE 13 20 7 11 - - 0.0
18/05:00am 10.2 4.8 -1.2 45 4.6 SE 17 26 9 14 - - 0.0
18/04:30am 10.2 5.2 -0.9 46 4.5 SE 15 24 8 13 - - 0.0
18/04:00am 10.2 6.0 -0.9 46 4.5 SE 11 19 6 10 - - 0.0
18/03:30am 10.6 5.7 -0.8 45 4.6 SE 15 22 8 12 - - 0.0
18/03:00am 10.9 5.6 -0.9 44 4.8 SE 17 24 9 13 - - 0.0
18/02:30am 11.2 5.3 -0.9 43 4.9 SE 20 30 11 16 - - 0.0
18/02:00am 11.6 5.9 -0.5 43 5.0 SE 19 30 10 16 - - 0.0
18/01:30am 11.9 6.0 -0.6 42 5.2 SE 20 30 11 16 - - 0.0
18/01:00am 11.9 6.2 -0.6 42 5.2 SE 19 28 10 15 - - 0.0
18/12:30am 12.3 6.6 -0.6 41 5.4 SSE 19 28 10 15 - - 0.0
18/12:00am 12.5 6.9 0.0 42 5.3 SE 19 30 10 16 - - 0.0
 
Date/Time
EST
Temp
°C
App
Temp
°C
Dew
Point
°C
Rel
Hum
%
Delta-T
°C
Wind Press
QNH
hPa
Press
MSL
hPa
Rain since
9am
mm
Dir  Spd
km/h
Gust
km/h
Spd
kts
Gust
kts
17/11:30pm 12.6 7.8 0.4 43 5.2 SSE 15 28 8 15 - - 0.0
17/11:00pm 12.8 8.0 0.5 43 5.3 SSE 15 22 8 12 - - 0.0
17/10:30pm 12.8 8.8 0.5 43 5.3 SSE 11 17 6 9 - - 0.0
17/10:00pm 13.2 8.8 0.3 41 5.5 SSE 13 19 7 10 - - 0.0
17/09:30pm 13.4 8.5 -0.3 39 5.8 SSE 15 20 8 11 - - 0.0
17/09:00pm 13.7 9.2 -0.3 38 5.9 SSE 13 17 7 9 - - 0.0
17/08:30pm 14.4 9.8 -0.8 35 6.4 SSE 13 22 7 12 - - 0.0
17/08:00pm 14.8 9.8 -0.9 34 6.6 SSE 15 22 8 12 - - 0.0
17/07:30pm 15.3 10.0 -0.9 33 6.9 SSE 17 24 9 13 - - 0.0
17/07:00pm 15.9 10.6 -0.8 32 7.2 SSE 17 26 9 14 - - 0.0
17/06:30pm 16.3 11.1 0.0 33 7.1 SSE 17 26 9 14 - - 0.0
17/06:00pm 16.9 11.5 1.0 34 7.1 SSE 19 32 10 17 - - 0.0
17/05:30pm 17.7 12.0 0.8 32 7.6 SE 20 30 11 16 - - 0.0
17/05:00pm 18.2 12.6 1.3 32 7.7 SE 20 32 11 17 - - 0.0
17/04:30pm 18.8 13.5 1.8 32 7.9 SSE 19 28 10 15 - - 0.0
17/04:00pm 18.8 13.3 1.8 32 7.9 SSE 20 33 11 18 - - 0.0
17/03:30pm 18.7 13.2 2.1 33 7.7 SSE 20 30 11 16 - - 0.0
17/03:00pm 18.9 13.1 2.3 33 7.8 SSE 22 32 12 17 - - 0.0
17/02:30pm 18.9 13.5 2.7 34 7.6 SSE 20 30 11 16 - - 0.0
17/02:00pm 18.8 13.7 3.0 35 7.5 SSE 19 30 10 16 - - 0.0
17/01:30pm 17.6 11.7 2.0 35 7.2 SE 22 32 12 17 - - 0.0
17/01:00pm 17.9 12.7 2.6 36 7.2 SSE 19 32 10 17 - - 0.0
17/12:30pm 17.2 11.5 2.8 38 6.7 SSE 22 32 12 17 - - 0.0
17/12:00pm 16.3 10.6 2.7 40 6.3 SE 22 33 12 18 - - 0.0
17/11:30am 16.0 10.4 3.4 43 5.9 SE 22 35 12 19 - - 0.0
17/11:00am 15.7 9.8 3.8 45 5.6 SE 24 35 13 19 - - 0.0
17/10:30am 14.9 9.0 3.7 47 5.2 SE 24 32 13 17 - - 0.0
17/10:00am 14.4 9.2 3.8 49 4.9 SE 20 35 11 19 - - 0.0
17/09:30am 13.6 8.5 3.9 52 4.5 SE 20 32 11 17 - - 0.0
17/09:00am 13.1 8.5 3.5 52 4.4 SE 17 30 9 16 - - 0.0
17/08:30am 12.0 7.8 3.8 57 3.7 SSE 15 24 8 13 - - 0.0
17/08:00am 11.2 7.7 3.5 59 3.5 SSE 11 19 6 10 - - 0.0
17/07:30am 10.7 6.9 3.7 62 3.2 SSE 13 20 7 11 - - 0.0
17/07:00am 11.2 6.6 3.5 59 3.5 SSE 17 26 9 14 - - 0.0
17/06:30am 11.2 6.6 3.5 59 3.5 SSE 17 24 9 13 - - 0.0
17/06:00am 11.6 7.0 3.6 58 3.6 SSE 17 28 9 15 - - 0.0
17/05:30am 11.8 6.6 3.6 57 3.7 SSE 20 30 11 16 - - 0.0
17/05:00am 11.9 7.3 3.7 57 3.7 SSE 17 24 9 13 - - 0.0
17/04:30am 12.2 8.4 3.7 56 3.9 SSE 13 20 7 11 - - 0.0
17/04:00am 12.5 7.9 3.7 55 4.0 SSE 17 22 9 12 - - 0.0
17/03:30am 12.4 8.2 3.9 56 3.9 SSE 15 24 8 13 - - 0.0
17/03:00am 11.9 8.5 3.9 58 3.7 SSE 11 15 6 8 - - 0.0
17/02:30am 12.0 9.4 4.2 59 3.6 SSE 7 11 4 6 - - 0.0
17/02:00am 12.8 9.5 4.3 56 4.0 SSE 11 15 6 8 - - 0.0
17/01:30am 13.0 9.7 4.4 56 4.0 SE 11 17 6 9 - - 0.0
17/01:00am 13.0 10.0 4.2 55 4.1 SE 9 13 5 7 - - 0.0
17/12:30am 13.5 10.1 4.1 53 4.4 SSE 11 15 6 8 - - 0.0
17/12:00am 13.6 10.6 4.2 53 4.4 SSE 9 13 5 7 - - 0.0
 
Date/Time
EST
Temp
°C
App
Temp
°C
Dew
Point
°C
Rel
Hum
%
Delta-T
°C
Wind Press
QNH
hPa
Press
MSL
hPa
Rain since
9am
mm
Dir  Spd
km/h
Gust
km/h
Spd
kts
Gust
kts
16/11:30pm 13.2 10.5 3.8 53 4.3 SE 7 13 4 7 - - 0.0
16/11:00pm 13.4 10.2 3.2 50 4.7 SE 9 13 5 7 - - 0.0
16/10:30pm 13.9 10.6 2.5 46 5.1 SE 9 13 5 7 - - 0.0
16/10:00pm 14.4 11.0 1.7 42 5.7 SSE 9 17 5 9 - - 0.0
16/09:30pm 13.8 10.3 1.5 43 5.4 SSE 9 11 5 6 - - 0.0
16/09:00pm 14.6 11.1 1.2 40 5.9 SE 9 11 5 6 - - 0.0
16/08:30pm 14.6 11.4 0.8 39 6.0 SE 7 9 4 5 - - 0.0
16/08:00pm 15.4 11.8 0.4 36 6.6 SE 9 13 5 7 - - 0.0
16/07:30pm 16.1 12.5 0.3 34 6.9 SE 9 13 5 7 - - 0.0
16/07:00pm 16.7 12.2 -0.1 32 7.4 SE 13 20 7 11 - - 0.0
16/06:30pm 17.1 12.3 0.3 32 7.4 SSE 15 22 8 12 - - 0.0
16/06:00pm 17.8 13.1 0.9 32 7.6 SSE 15 24 8 13 - - 0.0
16/05:30pm 18.4 12.8 0.1 29 8.2 SSE 19 26 10 14 - - 0.0
16/05:00pm 18.7 13.6 0.8 30 8.1 SE 17 24 9 13 - - 0.0
16/04:30pm 19.1 13.6 0.7 29 8.4 SSE 19 30 10 16 - - 0.0
16/04:00pm 19.4 13.9 0.9 29 8.5 SSE 19 33 10 18 - - 0.0
16/03:30pm 19.8 14.8 1.3 29 8.6 SSE 17 26 9 14 - - 0.0
16/03:00pm 19.3 13.9 1.3 30 8.3 SSE 19 30 10 16 - - 0.0
16/02:30pm 19.7 14.3 1.2 29 8.5 SSE 19 32 10 17 - - 0.0
16/02:00pm 19.9 14.4 1.8 30 8.5 SSE 20 33 11 18 - - 0.0
16/01:30pm 19.3 13.9 1.3 30 8.3 SSE 19 28 10 15 - - 0.0
16/01:00pm 19.4 14.0 2.3 32 8.0 SSE 20 32 11 17 - - 0.0
16/12:30pm 19.1 13.7 2.5 33 7.8 SSE 20 32 11 17 - - 0.0
16/12:00pm 18.2 11.7 2.5 35 7.3 S 26 37 14 20 - - 0.0
16/11:30am 18.0 12.2 2.3 35 7.3 SSE 22 35 12 19 - - 0.0
16/11:00am 17.7 11.5 2.1 35 7.2 SSE 24 35 13 19 - - 0.0
16/10:30am 17.0 10.7 1.8 36 6.9 SE 24 39 13 21 - - 0.0
16/10:00am 16.6 10.0 1.9 37 6.7 SE 26 37 14 20 - - 0.0
16/09:30am 15.7 9.1 2.2 40 6.1 SE 26 35 14 19 - - 0.0
16/09:00am 14.4 9.6 2.6 45 5.4 SE 17 26 9 14 - - 0.0
16/08:30am 13.1 9.9 2.9 50 4.6 SE 9 13 5 7 - - 0.0
16/08:00am 11.4 8.8 3.2 57 3.7 SE 6 9 3 5 - - 0.0
16/07:30am 10.8 8.0 2.9 58 3.5 SE 7 9 4 5 - - 0.0
16/07:00am 11.3 8.1 3.1 57 3.7 SE 9 13 5 7 - - 0.0
16/06:30am 9.6 7.2 4.2 69 2.4 SSE 6 9 3 5 - - 0.0
16/06:00am 9.0 7.6 3.8 70 2.3 CALM 0 4 0 2 - - 0.0
16/05:30am 10.8 8.2 3.1 59 3.4 SSE 6 9 3 5 - - 0.0
16/05:00am 9.3 8.2 5.1 75 1.9 CALM 0 2 0 1 - - 0.0
16/04:30am 11.2 8.4 3.3 58 3.5 S 7 9 4 5 - - 0.0
16/04:00am 10.4 8.3 3.9 64 2.9 S 4 9 2 5 - - 0.0
16/03:30am 11.0 9.2 3.3 59 3.5 SSE 2 6 1 3 - - 0.0
16/03:00am 11.8 9.2 3.3 56 3.8 SSE 6 7 3 4 - - 0.0
16/02:30am 12.4 9.8 3.4 54 4.1 SSE 6 11 3 6 - - 0.0
16/02:00am 11.7 9.6 3.7 58 3.6 S 4 6 2 3 - - 0.0
16/01:30am 13.6 10.8 3.1 49 4.8 SSE 7 11 4 6 - - 0.0
16/01:00am 12.8 10.3 4.0 55 4.1 SE 6 7 3 4 - - 0.0
16/12:30am 12.7 10.4 4.7 58 3.8 S 6 7 3 4 - - 0.0
16/12:00am 12.7 10.7 4.4 57 3.9 SSE 4 6 2 3 - - 0.0
 
Date/Time
EST
Temp
°C
App
Temp
°C
Dew
Point
°C
Rel
Hum
%
Delta-T
°C
Wind Press
QNH
hPa
Press
MSL
hPa
Rain since
9am
mm
Dir  Spd
km/h
Gust
km/h
Spd
kts
Gust
kts
15/11:30pm 13.2 10.9 4.9 57 3.9 SSE 6 7 3 4 - - 0.0
15/11:00pm 14.3 11.8 4.9 53 4.5 SSE 7 9 4 5 - - 0.0
15/10:30pm 14.7 11.8 4.7 51 4.8 SE 9 15 5 8 - - 0.0
15/10:00pm 15.1 12.3 5.0 51 4.9 SSE 9 13 5 7 - - 0.0

Other Formats:

Comma delimited format used in spreadsheet applications
http://www.bom.gov.au/fwo/IDQ60801/IDQ60801.94347.axf

JavaScript Object Notation format (JSON) in row-major order
http://www.bom.gov.au/fwo/IDQ60801/IDQ60801.94347.json